createdAt,value
2023-01-27T00:00:28.168Z,27.13
2023-01-27T00:02:55.003Z,27.90
2023-01-27T00:05:22.309Z,26.80
2023-01-27T00:07:49.915Z,26.23
2023-01-27T00:10:20.064Z,30.50
2023-01-27T00:13:06.028Z,29.40
2023-01-27T00:15:33.395Z,30.07
2023-01-27T00:18:00.485Z,28.40
2023-01-27T00:20:45.906Z,32.53
2023-01-27T00:23:35.828Z,27.10
2023-01-27T00:26:06.382Z,29.00
2023-01-27T00:28:37.232Z,30.70
2023-01-27T00:31:04.316Z,31.48
2023-01-27T00:33:31.226Z,30.63
2023-01-27T00:35:58.400Z,31.20
2023-01-27T00:38:26.653Z,31.03
2023-01-27T00:41:11.780Z,26.50
2023-01-27T00:43:38.538Z,29.13
2023-01-27T00:46:05.703Z,28.87
2023-01-27T00:48:32.685Z,29.60
2023-01-27T00:50:59.528Z,28.00
2023-01-27T00:53:26.291Z,29.00
2023-01-27T00:55:53.145Z,27.43
2023-01-27T00:58:19.948Z,28.47
2023-01-27T01:00:46.745Z,30.77
2023-01-27T01:03:13.481Z,27.50
2023-01-27T01:05:40.206Z,32.47
2023-01-27T01:08:07.056Z,29.13
2023-01-27T01:10:33.817Z,34.73
2023-01-27T01:13:00.641Z,35.13
2023-01-27T01:15:27.410Z,33.13
2023-01-27T01:17:54.206Z,32.80
2023-01-27T01:20:21.008Z,34.33
2023-01-27T01:22:47.799Z,33.27
2023-01-27T01:25:14.707Z,28.77
2023-01-27T01:27:44.222Z,33.73
2023-01-27T01:30:11.924Z,30.13
2023-01-27T01:32:38.948Z,32.77
2023-01-27T01:35:06.176Z,31.50
2023-01-27T01:37:32.941Z,30.93
2023-01-27T01:39:59.678Z,31.23
2023-01-27T01:42:26.397Z,32.67
2023-01-27T01:45:31.701Z,29.50
2023-01-27T01:47:59.347Z,47.40
2023-01-27T01:50:26.107Z,31.50
2023-01-27T01:52:54.278Z,31.47
2023-01-27T01:55:21.604Z,33.10
2023-01-27T01:57:48.403Z,31.87
2023-01-27T02:00:15.850Z,30.73
2023-01-27T02:02:42.776Z,29.83
2023-01-27T02:05:29.910Z,28.63
2023-01-27T02:08:01.172Z,29.20
2023-01-27T02:10:27.983Z,28.40
2023-01-27T02:12:54.836Z,31.67
2023-01-27T02:15:21.624Z,26.77
2023-01-27T02:17:48.805Z,35.50
2023-01-27T02:20:28.617Z,29.10
2023-01-27T02:23:23.090Z,33.47
2023-01-27T02:25:51.278Z,37.80
2023-01-27T02:28:18.119Z,24.70
2023-01-27T02:30:45.038Z,32.00
2023-01-27T02:33:15.640Z,28.67
2023-01-27T02:36:03.377Z,28.67
2023-01-27T02:38:35.483Z,32.53
2023-01-27T02:41:25.759Z,26.67
2023-01-27T02:43:52.613Z,30.25
2023-01-27T02:46:19.579Z,28.10
2023-01-27T02:48:46.425Z,29.80
2023-01-27T02:51:13.273Z,27.40
2023-01-27T02:53:40.228Z,30.40
2023-01-27T02:56:07.120Z,31.80
2023-01-27T02:58:33.982Z,29.33
2023-01-27T03:01:00.718Z,27.90
2023-01-27T03:03:27.461Z,29.03
2023-01-27T03:05:54.333Z,31.40
2023-01-27T03:08:21.104Z,32.57
2023-01-27T03:10:51.976Z,33.07
2023-01-27T03:13:24.829Z,31.98
2023-01-27T03:16:11.560Z,30.77
2023-01-27T03:18:40.209Z,33.97
2023-01-27T03:21:07.264Z,33.20
2023-01-27T03:23:34.331Z,31.23
2023-01-27T03:26:01.677Z,35.00
2023-01-27T03:28:28.489Z,32.17
2023-01-27T03:31:08.965Z,31.17
2023-01-27T03:33:35.826Z,34.85
2023-01-27T03:36:21.821Z,33.37
2023-01-27T03:39:07.157Z,27.93
2023-01-27T03:41:52.447Z,32.03
2023-01-27T03:44:37.860Z,29.17
2023-01-27T03:47:04.658Z,30.83
2023-01-27T03:49:31.473Z,30.17
2023-01-27T03:51:59.033Z,28.73
2023-01-27T03:54:25.823Z,30.53
2023-01-27T03:56:52.606Z,33.33
2023-01-27T03:59:19.403Z,28.80
2023-01-27T04:01:46.300Z,37.90
2023-01-27T04:04:31.921Z,30.83
2023-01-27T04:07:00.820Z,28.90
2023-01-27T04:09:34.641Z,33.10
2023-01-27T04:12:03.271Z,33.53
2023-01-27T04:14:38.243Z,30.27
2023-01-27T04:17:11.578Z,30.20
2023-01-27T04:19:38.578Z,32.87
2023-01-27T04:22:05.574Z,30.57
2023-01-27T04:24:32.515Z,32.53
2023-01-27T04:27:06.613Z,35.43
2023-01-27T04:29:35.006Z,35.13
2023-01-27T04:32:03.497Z,41.70
2023-01-27T04:34:30.419Z,37.87
2023-01-27T04:36:57.338Z,34.10
2023-01-27T04:39:24.264Z,43.07
2023-01-27T04:41:51.723Z,35.20
2023-01-27T04:44:21.409Z,33.67
2023-01-27T04:46:48.609Z,35.07
2023-01-27T04:49:15.473Z,29.67
2023-01-27T04:51:42.440Z,32.13
2023-01-27T04:54:09.461Z,32.50
2023-01-27T04:56:41.192Z,35.60
2023-01-27T04:59:10.738Z,33.77
2023-01-27T05:01:37.520Z,33.03
2023-01-27T05:04:04.429Z,36.97
2023-01-27T05:06:31.244Z,32.93
2023-01-27T05:08:58.043Z,47.40
2023-01-27T05:11:24.821Z,35.83
2023-01-27T05:13:51.607Z,39.47
2023-01-27T05:16:23.553Z,35.47
2023-01-27T05:18:51.264Z,38.13
2023-01-27T05:21:22.645Z,36.57
2023-01-27T05:23:49.887Z,37.20
2023-01-27T05:26:19.486Z,35.67
2023-01-27T05:28:46.847Z,32.47
2023-01-27T05:31:15.124Z,33.57
2023-01-27T05:33:42.328Z,34.67
2023-01-27T05:36:10.060Z,32.00
2023-01-27T05:38:36.939Z,36.60
2023-01-27T05:41:05.532Z,35.97
2023-01-27T05:43:34.447Z,36.10
2023-01-27T05:46:05.937Z,30.83
2023-01-27T05:48:34.379Z,38.47
2023-01-27T05:51:01.185Z,37.93
2023-01-27T05:53:28.118Z,45.87
2023-01-27T05:55:55.139Z,80.47
2023-01-27T05:58:22.150Z,53.37
2023-01-27T06:00:49.058Z,40.77
2023-01-27T06:03:16.043Z,34.80
2023-01-27T06:05:56.541Z,31.47
2023-01-27T06:08:24.197Z,34.63
2023-01-27T06:10:51.442Z,32.90
2023-01-27T06:13:18.697Z,34.40
2023-01-27T06:15:46.238Z,38.53
2023-01-27T06:18:13.275Z,38.70
2023-01-27T06:20:40.295Z,34.23
2023-01-27T06:23:08.538Z,41.53
2023-01-27T06:25:39.468Z,42.70
2023-01-27T06:30:37.037Z,44.37
2023-01-27T06:33:04.106Z,52.50
2023-01-27T06:35:30.945Z,50.70
2023-01-27T06:38:01.215Z,51.17
2023-01-27T06:40:29.402Z,58.47
2023-01-27T06:42:56.202Z,47.50
2023-01-27T06:45:23.037Z,41.07
2023-01-27T06:48:00.259Z,39.33
2023-01-27T06:50:28.625Z,44.00
2023-01-27T06:53:02.834Z,38.10
2023-01-27T06:55:29.741Z,43.10
2023-01-27T06:57:56.527Z,41.23
2023-01-27T07:00:23.478Z,40.07
2023-01-27T07:02:50.878Z,44.27
2023-01-27T07:05:17.981Z,41.60
2023-01-27T07:07:44.912Z,44.13
2023-01-27T07:10:12.154Z,41.90
2023-01-27T07:12:39.672Z,39.73
2023-01-27T07:15:07.596Z,40.33
2023-01-27T07:17:34.733Z,39.83
2023-01-27T07:20:01.861Z,43.67
2023-01-27T07:22:28.671Z,44.53
2023-01-27T07:24:55.757Z,43.10
2023-01-27T07:27:23.506Z,43.10
2023-01-27T07:29:50.337Z,42.07
2023-01-27T07:32:17.260Z,48.13
2023-01-27T07:34:44.216Z,41.03
2023-01-27T07:37:11.080Z,40.50
2023-01-27T07:39:38.240Z,44.67
2023-01-27T07:42:05.797Z,48.20
2023-01-27T07:44:32.727Z,40.13
2023-01-27T07:46:59.974Z,51.10
2023-01-27T07:49:27.649Z,44.33
2023-01-27T07:51:54.510Z,43.37
2023-01-27T07:54:21.288Z,38.77
2023-01-27T07:56:48.112Z,36.97
2023-01-27T07:59:14.976Z,37.87
2023-01-27T08:01:42.152Z,38.67
2023-01-27T08:04:09.064Z,41.07
2023-01-27T08:06:38.363Z,42.83
2023-01-27T08:09:05.502Z,59.70
2023-01-27T08:11:32.423Z,55.77
2023-01-27T08:13:59.255Z,51.87
2023-01-27T08:16:26.039Z,49.87
2023-01-27T08:18:53.894Z,43.77
2023-01-27T08:21:20.729Z,50.37
2023-01-27T08:23:47.535Z,53.90
2023-01-27T08:26:14.483Z,55.57
2023-01-27T08:28:41.520Z,56.40
2023-01-27T08:31:10.446Z,49.47
2023-01-27T08:33:37.501Z,47.77
2023-01-27T08:36:05.871Z,56.07
2023-01-27T08:38:34.523Z,48.60
2023-01-27T08:41:05.818Z,52.40
2023-01-27T08:43:32.845Z,50.17
2023-01-27T08:46:00.848Z,47.60
2023-01-27T08:48:29.116Z,50.65
2023-01-27T08:50:56.309Z,52.00
2023-01-27T08:53:24.052Z,48.38
2023-01-27T08:55:51.071Z,55.50
2023-01-27T08:58:17.906Z,50.88
2023-01-27T09:00:44.811Z,49.05
2023-01-27T09:03:11.628Z,51.63
2023-01-27T09:05:38.508Z,48.85
2023-01-27T09:08:05.651Z,46.77
2023-01-27T09:10:32.602Z,42.87
2023-01-27T09:12:59.321Z,50.27
2023-01-27T09:15:26.041Z,54.53
2023-01-27T09:17:52.831Z,51.87
2023-01-27T09:20:19.734Z,55.28
2023-01-27T09:22:46.465Z,76.03
2023-01-27T09:25:16.936Z,54.72
2023-01-27T09:27:44.467Z,57.30
2023-01-27T09:30:12.439Z,51.42
2023-01-27T09:32:39.438Z,46.72
2023-01-27T09:35:06.747Z,47.33
2023-01-27T09:37:34.404Z,48.90
2023-01-27T09:40:02.509Z,62.17
2023-01-27T09:42:53.020Z,69.87
2023-01-27T09:45:52.175Z,50.45
2023-01-27T09:48:31.505Z,41.37
2023-01-27T09:51:03.983Z,49.28
2023-01-27T09:54:12.923Z,49.63
2023-01-27T09:56:51.769Z,36.03
2023-01-27T09:59:49.288Z,41.15
2023-01-27T10:02:27.202Z,37.20
2023-01-27T10:05:07.378Z,31.20
2023-01-27T10:07:44.449Z,36.53
2023-01-27T10:10:37.251Z,35.42
2023-01-27T10:13:22.822Z,35.38
2023-01-27T10:16:20.227Z,33.00
2023-01-27T10:19:12.328Z,33.83
2023-01-27T10:21:59.902Z,35.13
2023-01-27T10:24:32.513Z,39.47
2023-01-27T10:27:03.999Z,40.67
2023-01-27T10:29:44.708Z,40.08
2023-01-27T10:32:19.211Z,36.55
2023-01-27T10:35:09.191Z,36.25
2023-01-27T10:37:57.152Z,40.67
2023-01-27T10:40:36.050Z,42.17
2023-01-27T10:43:35.473Z,41.60
2023-01-27T10:46:23.559Z,43.05
2023-01-27T10:49:00.233Z,46.17
2023-01-27T10:51:35.935Z,38.30
2023-01-27T10:54:35.118Z,41.20
2023-01-27T10:57:22.469Z,44.40
2023-01-27T11:00:28.833Z,39.63
2023-01-27T11:03:10.490Z,40.85
2023-01-27T11:05:43.258Z,49.63
2023-01-27T11:08:21.342Z,40.70
2023-01-27T11:11:08.595Z,40.47
2023-01-27T11:13:35.489Z,34.90
2023-01-27T11:16:02.380Z,37.92
2023-01-27T11:18:29.917Z,35.65
2023-01-27T11:21:05.307Z,46.45
2023-01-27T11:23:35.599Z,45.63
2023-01-27T11:26:32.700Z,62.10
2023-01-27T11:29:27.252Z,61.10
2023-01-27T11:32:11.364Z,41.08
2023-01-27T11:34:44.039Z,47.35
2023-01-27T11:37:25.758Z,40.42
2023-01-27T11:39:52.582Z,38.95
2023-01-27T11:42:19.474Z,40.30
2023-01-27T11:44:46.306Z,37.17
2023-01-27T11:47:38.497Z,32.97
2023-01-27T11:50:05.948Z,34.83
2023-01-27T11:52:32.937Z,39.05
2023-01-27T11:55:08.515Z,35.05
2023-01-27T11:57:35.323Z,37.83
2023-01-27T12:00:08.110Z,39.92
2023-01-27T12:03:23.444Z,36.97
2023-01-27T12:05:55.650Z,42.05
2023-01-27T12:08:40.829Z,43.45
2023-01-27T12:11:16.706Z,43.25
2023-01-27T12:13:51.026Z,40.38
2023-01-27T12:16:17.823Z,42.25
2023-01-27T12:18:56.353Z,38.80
2023-01-27T12:21:34.704Z,41.88
2023-01-27T12:24:01.545Z,35.92
2023-01-27T12:26:39.557Z,34.72
2023-01-27T12:29:12.761Z,29.75
2023-01-27T12:31:45.421Z,39.33
2023-01-27T12:34:28.729Z,33.25
2023-01-27T12:36:55.684Z,33.40
2023-01-27T12:39:40.021Z,35.97
2023-01-27T12:42:06.860Z,37.17
2023-01-27T12:44:49.623Z,35.13
2023-01-27T12:47:26.130Z,36.28
2023-01-27T12:49:54.085Z,35.05
2023-01-27T12:52:21.540Z,34.55
2023-01-27T12:54:51.282Z,33.13
2023-01-27T12:57:19.930Z,33.88
2023-01-27T12:59:57.307Z,34.30
2023-01-27T13:02:28.270Z,32.72
2023-01-27T13:07:28.413Z,38.47
2023-01-27T13:10:03.137Z,36.40
2023-01-27T13:12:48.845Z,40.83
2023-01-27T13:15:17.162Z,33.37
2023-01-27T13:17:48.403Z,34.57
2023-01-27T13:20:30.997Z,37.00
2023-01-27T13:23:11.442Z,35.80
2023-01-27T13:25:51.091Z,33.08
2023-01-27T13:28:20.964Z,30.02
2023-01-27T13:30:52.377Z,31.35
2023-01-27T13:33:37.967Z,35.37
2023-01-27T13:36:08.199Z,33.33
2023-01-27T13:38:55.709Z,30.27
2023-01-27T13:42:00.614Z,31.77
2023-01-27T13:44:36.699Z,29.07
2023-01-27T13:47:06.324Z,30.20
2023-01-27T13:49:38.806Z,32.63
2023-01-27T13:52:05.812Z,32.10
2023-01-27T13:54:32.664Z,30.40
2023-01-27T13:57:24.053Z,32.90
2023-01-27T14:00:01.808Z,34.30
2023-01-27T14:03:09.093Z,32.30
2023-01-27T14:05:57.474Z,27.80
2023-01-27T14:08:45.953Z,33.20
2023-01-27T14:11:32.546Z,31.07
2023-01-27T14:14:21.608Z,26.53
2023-01-27T14:17:12.959Z,29.77
2023-01-27T14:19:58.343Z,35.57
2023-01-27T14:22:50.902Z,27.17
2023-01-27T14:25:33.326Z,29.23
2023-01-27T14:28:10.865Z,27.90
2023-01-27T14:30:42.483Z,30.20
2023-01-27T14:33:27.356Z,36.90
2023-01-27T14:35:57.155Z,29.93
2023-01-27T14:38:49.915Z,30.27
2023-01-27T14:41:34.195Z,34.10
2023-01-27T14:44:43.481Z,33.97
2023-01-27T14:47:26.858Z,32.00
2023-01-27T14:50:08.312Z,38.50
2023-01-27T14:52:44.763Z,36.80
2023-01-27T14:55:51.737Z,36.63
2023-01-27T14:58:39.560Z,38.87
2023-01-27T15:01:27.639Z,40.20
2023-01-27T15:04:08.285Z,34.03
2023-01-27T15:06:47.468Z,43.92
2023-01-27T15:09:49.685Z,37.27
2023-01-27T15:12:36.804Z,32.37
2023-01-27T15:15:19.927Z,38.27
2023-01-27T15:18:09.164Z,36.90
2023-01-27T15:20:38.996Z,37.63
2023-01-27T15:23:36.681Z,40.60
2023-01-27T15:26:06.637Z,38.93
2023-01-27T15:28:35.685Z,29.73
2023-01-27T15:31:14.445Z,36.47
2023-01-27T15:33:47.207Z,36.90
2023-01-27T15:36:32.146Z,38.77
2023-01-27T15:39:20.258Z,35.47
2023-01-27T15:42:12.620Z,74.13
2023-01-27T15:44:59.729Z,44.85
2023-01-27T15:47:28.962Z,32.23
2023-01-27T15:50:20.276Z,77.27
2023-01-27T15:52:47.925Z,34.10
2023-01-27T15:55:29.330Z,34.83
2023-01-27T15:58:11.277Z,33.07
2023-01-27T16:00:39.149Z,33.63
2023-01-27T16:03:15.500Z,43.83
2023-01-27T16:05:44.999Z,35.37
2023-01-27T16:08:15.275Z,31.67
2023-01-27T16:10:42.126Z,33.58
2023-01-27T16:13:14.932Z,34.83
2023-01-27T16:15:41.866Z,31.43
2023-01-27T16:18:08.825Z,29.73
2023-01-27T16:20:55.536Z,29.03
2023-01-27T16:23:38.674Z,36.77
2023-01-27T16:26:30.524Z,42.63
2023-01-27T16:29:05.851Z,32.50
2023-01-27T16:31:32.639Z,36.23
2023-01-27T16:34:00.531Z,40.77
2023-01-27T16:36:29.690Z,86.43
2023-01-27T16:38:58.663Z,56.77
2023-01-27T16:41:36.232Z,42.40
2023-01-27T16:44:07.876Z,47.97
2023-01-27T16:46:41.851Z,48.40
2023-01-27T16:49:35.652Z,49.03
2023-01-27T16:52:05.576Z,49.90
2023-01-27T16:54:38.844Z,51.27
2023-01-27T16:57:06.427Z,51.77
2023-01-27T16:59:35.869Z,59.27
2023-01-27T17:02:22.548Z,51.80
2023-01-27T17:04:58.689Z,50.03
2023-01-27T17:07:25.557Z,53.13
2023-01-27T17:10:02.943Z,49.27
2023-01-27T17:12:34.469Z,51.60
2023-01-27T17:15:02.849Z,48.83
2023-01-27T17:17:31.925Z,56.13
2023-01-27T17:20:03.789Z,63.77
2023-01-27T17:22:41.792Z,52.90
2023-01-27T17:25:16.985Z,57.20
2023-01-27T17:27:44.152Z,51.47
2023-01-27T17:30:13.940Z,57.93
2023-01-27T17:32:42.019Z,52.87
2023-01-27T17:35:24.785Z,49.17
2023-01-27T17:37:51.661Z,56.23
2023-01-27T17:40:20.416Z,54.93
2023-01-27T17:42:47.492Z,42.77
2023-01-27T17:45:24.689Z,31.50
2023-01-27T17:47:51.515Z,37.83
2023-01-27T17:50:19.940Z,37.70
2023-01-27T17:52:52.527Z,38.83
2023-01-27T17:55:24.483Z,33.07
2023-01-27T17:57:55.150Z,30.53
2023-01-27T18:00:27.171Z,32.78
2023-01-27T18:03:05.686Z,37.80
2023-01-27T18:05:33.401Z,34.43
2023-01-27T18:08:00.625Z,30.50
2023-01-27T18:10:37.268Z,31.47
2023-01-27T18:13:16.054Z,27.63
2023-01-27T18:15:48.351Z,29.10
2023-01-27T18:18:21.317Z,29.80
2023-01-27T18:21:08.185Z,28.77
2023-01-27T18:23:37.660Z,33.00
2023-01-27T18:26:04.435Z,33.27
2023-01-27T18:28:33.763Z,34.83
2023-01-27T18:31:00.644Z,36.70
2023-01-27T18:33:27.456Z,33.60
2023-01-27T18:35:58.123Z,34.17
2023-01-27T18:38:31.118Z,39.00
2023-01-27T18:41:24.029Z,38.13
2023-01-27T18:43:50.841Z,47.83
2023-01-27T18:46:18.772Z,43.73
2023-01-27T18:48:45.948Z,41.20
2023-01-27T18:51:13.729Z,43.90
2023-01-27T18:53:40.651Z,51.53
2023-01-27T18:56:08.188Z,53.73
2023-01-27T18:58:38.594Z,58.30
2023-01-27T19:01:14.757Z,65.80
2023-01-27T19:03:41.531Z,61.30
2023-01-27T19:06:16.026Z,64.67
2023-01-27T19:08:42.987Z,64.77
2023-01-27T19:11:16.012Z,55.10
2023-01-27T19:13:46.184Z,62.90
2023-01-27T19:16:15.202Z,59.95
2023-01-27T19:18:42.238Z,65.87
2023-01-27T19:21:13.745Z,71.87
2023-01-27T19:23:44.366Z,67.27
2023-01-27T19:26:18.739Z,75.25
2023-01-27T19:28:51.132Z,84.30
2023-01-27T19:31:17.984Z,83.03
2023-01-27T19:33:45.074Z,100.10
2023-01-27T19:36:14.753Z,110.97
2023-01-27T19:38:41.787Z,112.00
2023-01-27T19:41:10.761Z,102.10
2023-01-27T19:43:37.622Z,101.10
2023-01-27T19:46:13.570Z,91.50
2023-01-27T19:48:43.432Z,103.77
2023-01-27T19:51:11.444Z,97.87
2023-01-27T19:53:38.678Z,107.87
2023-01-27T19:56:18.216Z,105.40
2023-01-27T19:58:51.464Z,95.47
2023-01-27T20:01:19.238Z,105.67
2023-01-27T20:03:46.190Z,104.20
2023-01-27T20:06:23.624Z,98.13
2023-01-27T20:08:55.080Z,94.07
2023-01-27T20:11:33.866Z,121.20
2023-01-27T20:14:01.210Z,114.43
2023-01-27T20:16:28.098Z,97.53
2023-01-27T20:18:55.044Z,98.80
2023-01-27T20:21:22.243Z,96.70
2023-01-27T20:23:49.024Z,95.60
2023-01-27T20:26:16.353Z,90.13
2023-01-27T20:28:43.535Z,85.33
2023-01-27T20:31:14.445Z,85.67
2023-01-27T20:33:41.157Z,84.05
2023-01-27T20:36:14.903Z,91.50
2023-01-27T20:38:42.989Z,80.20
2023-01-27T20:41:11.622Z,76.17
2023-01-27T20:43:38.466Z,94.80
2023-01-27T20:46:06.116Z,88.13
2023-01-27T20:48:33.365Z,90.53
2023-01-27T20:51:01.006Z,71.80
2023-01-27T20:53:32.765Z,72.90
2023-01-27T20:56:00.141Z,65.03
2023-01-27T20:58:27.495Z,67.73
2023-01-27T21:00:54.431Z,71.73
2023-01-27T21:03:22.665Z,72.57
2023-01-27T21:05:49.799Z,70.73
2023-01-27T21:08:16.608Z,78.60
2023-01-27T21:10:43.324Z,82.63
2023-01-27T21:13:10.130Z,243.53
2023-01-27T21:15:39.141Z,92.97
2023-01-27T21:18:05.952Z,90.17
2023-01-27T21:20:32.724Z,75.77
2023-01-27T21:22:59.515Z,72.80
2023-01-27T21:25:26.257Z,68.37
2023-01-27T21:27:53.001Z,65.20
2023-01-27T21:30:19.893Z,66.47
2023-01-27T21:32:46.674Z,95.70
2023-01-27T21:35:13.912Z,73.97
2023-01-27T21:37:40.811Z,77.30
2023-01-27T21:40:08.036Z,85.67
2023-01-27T21:42:53.477Z,71.43
2023-01-27T21:45:20.839Z,163.80
2023-01-27T21:47:47.730Z,106.33
2023-01-27T21:50:16.732Z,139.83
2023-01-27T21:52:45.032Z,98.47
2023-01-27T21:55:14.219Z,91.40
2023-01-27T21:57:41.511Z,83.80
2023-01-27T22:00:10.155Z,97.00
2023-01-27T22:02:37.316Z,83.03
2023-01-27T22:05:06.796Z,93.43
2023-01-27T22:07:40.534Z,87.70
2023-01-27T22:10:08.874Z,93.77
2023-01-27T22:12:37.926Z,83.03
2023-01-27T22:15:06.545Z,65.93
2023-01-27T22:17:34.651Z,78.00
2023-01-27T22:20:01.589Z,86.27
2023-01-27T22:22:28.463Z,99.30
2023-01-27T22:24:55.223Z,89.83
2023-01-27T22:27:22.124Z,84.97
2023-01-27T22:29:48.956Z,92.30
2023-01-27T22:32:15.762Z,93.30
2023-01-27T22:34:44.442Z,90.87
2023-01-27T22:37:11.227Z,88.50
2023-01-27T22:39:38.263Z,95.90
2023-01-27T22:42:05.189Z,95.00
2023-01-27T22:44:31.996Z,93.90
2023-01-27T22:46:58.811Z,85.27
2023-01-27T22:49:25.633Z,77.93
2023-01-27T22:51:52.491Z,73.37
2023-01-27T22:54:19.280Z,80.80
2023-01-27T22:56:46.069Z,78.43
2023-01-27T22:59:13.170Z,58.30
2023-01-27T23:01:40.316Z,51.87
2023-01-27T23:04:07.141Z,44.13
2023-01-27T23:06:34.209Z,42.40
2023-01-27T23:09:00.996Z,54.50
2023-01-27T23:11:27.763Z,48.77
2023-01-27T23:13:56.736Z,45.70
2023-01-27T23:16:23.714Z,37.50
2023-01-27T23:18:50.775Z,41.80
2023-01-27T23:21:17.517Z,44.20
2023-01-27T23:23:44.315Z,44.50
2023-01-27T23:26:11.079Z,40.13
2023-01-27T23:28:38.148Z,46.33
2023-01-27T23:31:08.537Z,44.97
2023-01-27T23:33:35.915Z,47.53
2023-01-27T23:36:03.438Z,46.83
2023-01-27T23:38:33.876Z,43.63
2023-01-27T23:41:05.311Z,41.70
2023-01-27T23:43:32.147Z,48.43
2023-01-27T23:45:59.313Z,52.77
2023-01-27T23:48:26.501Z,53.87
2023-01-27T23:50:53.360Z,48.03
2023-01-27T23:53:20.141Z,51.63
2023-01-27T23:55:55.726Z,53.33
2023-01-27T23:58:22.551Z,53.60
